Norris Observed Data For Previous 48 Hours

Caption
Day and Hour Reservoir Elevation (behind dam)* Tailwater Elevation (below dam)* Average Hourly Discharge*
2/20/2018 2 AM EST 1,018.31 830.58 17,962
2/20/2018 3 AM EST 1,018.31 830.62 17,963
2/20/2018 4 AM EST 1,018.33 830.59 17,962
2/20/2018 5 AM EST 1,018.33 830.63 17,949
2/20/2018 6 AM EST 1,018.35 830.67 17,961
2/20/2018 7 AM EST 1,018.35 830.61 17,960
2/20/2018 8 AM EST 1,018.35 830.56 17,960
2/20/2018 9 AM EST 1,018.36 830.56 17,963
2/20/2018 10 AM EST 1,018.35 830.57 17,962
2/20/2018 11 AM EST 1,018.35 830.57 17,961
2/20/2018 12 PM EST 1,018.33 830.59 17,959
2/20/2018 1 PM EST 1,018.33 830.60 17,964
2/20/2018 2 PM EST 1,018.31 830.51 17,965
2/20/2018 3 PM EST 1,018.32 830.64 17,970
2/20/2018 4 PM EST 1,018.32 830.61 17,957
2/20/2018 5 PM EST 1,018.31 830.63 17,957
2/20/2018 6 PM EST 1,018.33 830.64 17,959
2/20/2018 7 PM EST 1,018.32 830.71 17,974
2/20/2018 8 PM EST 1,018.33 830.61 17,973
2/20/2018 9 PM EST 1,018.32 830.58 17,957
2/20/2018 10 PM EST 1,018.30 830.68 17,961
2/20/2018 11 PM EST 1,018.29 830.54 17,957
2/21/2018 12 AM EST 1,018.28 830.76 17,950
2/21/2018 1 AM EST 1,018.27 830.65 17,954
2/21/2018 2 AM EST 1,018.26 830.64 17,951
2/21/2018 3 AM EST 1,018.25 830.64 17,951
2/21/2018 4 AM EST 1,018.24 830.60 17,952
2/21/2018 5 AM EST 1,018.23 830.60 17,945
2/21/2018 6 AM EST 1,018.23 830.59 17,943
2/21/2018 7 AM EST 1,018.21 830.56 17,958
2/21/2018 8 AM EST 1,018.20 830.60 17,952
2/21/2018 9 AM EST 1,018.18 830.60 17,958
2/21/2018 10 AM EST 1,018.16 830.59 17,951
2/21/2018 11 AM EST 1,018.15 830.59 17,955
2/21/2018 12 PM EST 1,018.12 830.64 17,948
2/21/2018 1 PM EST 1,018.11 830.78 17,928
2/21/2018 2 PM EST 1,018.06 831.24 20,029
2/21/2018 3 PM EST 1,018.06 831.28 20,710
2/21/2018 4 PM EST 1,018.05 831.40 20,714
2/21/2018 5 PM EST 1,018.02 831.43 20,715
2/21/2018 6 PM EST 1,018.00 831.41 20,713
2/21/2018 7 PM EST 1,017.98 831.42 20,724
2/21/2018 8 PM EST 1,017.95 831.48 20,711
2/21/2018 9 PM EST 1,017.92 831.39 20,706
2/21/2018 10 PM EST 1,017.91 831.50 20,708
2/21/2018 11 PM EST 1,017.88 831.48 20,705
2/22/2018 12 AM EST 1,017.85 831.35 20,691
2/22/2018 1 AM EST 1,017.82 831.44 20,694
2/22/2018 2 AM EST 1,017.80 831.39 20,694
2/22/2018 3 AM EST 1,017.77 831.39 20,700

Elevations are in feet above sea level. Discharges are in cubic feet per second and are reported at the end of the hour.